createdAt,value
2022-12-28T00:01:31.121Z,101414.31
2022-12-28T00:04:02.875Z,101411.09
2022-12-28T00:06:29.701Z,101415.31
2022-12-28T00:08:57.297Z,101420.72
2022-12-28T00:11:30.764Z,101417.13
2022-12-28T00:14:01.857Z,101408.88
2022-12-28T00:16:33.124Z,101411.06
2022-12-28T00:19:01.699Z,101405.91
2022-12-28T00:21:28.810Z,101405.91
2022-12-28T00:23:58.266Z,101401.47
2022-12-28T00:26:26.664Z,101403.19
2022-12-28T00:28:56.923Z,101402.56
2022-12-28T00:31:28.868Z,101415.16
2022-12-28T00:33:55.604Z,101415.09
2022-12-28T00:36:22.202Z,101419.63
2022-12-28T00:38:48.833Z,101428.38
2022-12-28T00:41:15.421Z,101406.88
2022-12-28T00:43:42.112Z,101423.16
2022-12-28T00:46:08.806Z,101419.06
2022-12-28T00:48:35.486Z,101416.19
2022-12-28T00:51:07.769Z,101418.66
2022-12-28T00:53:34.558Z,101424.47
2022-12-28T00:56:15.389Z,101422.00
2022-12-28T00:58:42.625Z,101435.69
2022-12-28T01:01:28.848Z,101427.63
2022-12-28T01:03:56.526Z,101435.00
2022-12-28T01:06:23.156Z,101442.03
2022-12-28T01:08:49.766Z,101446.16
2022-12-28T01:11:25.101Z,101452.88
2022-12-28T01:13:54.118Z,101444.34
2022-12-28T01:16:23.984Z,101442.97
2022-12-28T01:18:56.455Z,101443.69
2022-12-28T01:21:26.703Z,101444.59
2022-12-28T01:23:56.569Z,101448.31
2022-12-28T01:26:24.372Z,101435.66
2022-12-28T01:28:51.051Z,101446.28
2022-12-28T01:31:19.353Z,101442.56
2022-12-28T01:33:46.917Z,101443.59
2022-12-28T01:36:24.869Z,101428.88
2022-12-28T01:38:59.955Z,101437.72
2022-12-28T01:41:28.752Z,101427.50
2022-12-28T01:43:55.300Z,101415.44
2022-12-28T01:46:27.510Z,101425.38
2022-12-28T01:49:08.403Z,101421.75
2022-12-28T01:51:42.306Z,101424.25
2022-12-28T01:54:09.266Z,101418.91
2022-12-28T01:56:36.813Z,101413.72
2022-12-28T01:59:03.710Z,101409.25
2022-12-28T02:01:30.583Z,101406.50
2022-12-28T02:03:57.332Z,101402.63
2022-12-28T02:06:23.947Z,101401.84
2022-12-28T02:08:50.581Z,101409.41
2022-12-28T02:11:19.281Z,101411.06
2022-12-28T02:13:51.252Z,101411.66
2022-12-28T02:16:18.484Z,101408.78
2022-12-28T02:18:46.780Z,101404.56
2022-12-28T02:21:23.650Z,101413.13
2022-12-28T02:24:08.817Z,101423.72
2022-12-28T02:27:06.260Z,101423.41
2022-12-28T02:30:10.193Z,101421.78
2022-12-28T02:33:00.758Z,101419.81
2022-12-28T02:35:54.309Z,101419.72
2022-12-28T02:38:42.885Z,101417.38
2022-12-28T02:41:13.772Z,101418.91
2022-12-28T02:43:40.631Z,101421.78
2022-12-28T02:46:28.938Z,101415.78
2022-12-28T02:48:55.665Z,101416.78
2022-12-28T02:51:28.433Z,101415.91
2022-12-28T02:54:00.733Z,101411.44
2022-12-28T02:56:52.857Z,101421.84
2022-12-28T02:59:22.398Z,101421.78
2022-12-28T03:01:51.795Z,101417.22
2022-12-28T03:04:33.229Z,101415.13
2022-12-28T03:07:21.551Z,101415.66
2022-12-28T03:10:00.278Z,101416.59
2022-12-28T03:12:40.324Z,101412.63
2022-12-28T03:15:12.038Z,101419.16
2022-12-28T03:17:42.521Z,101413.16
2022-12-28T03:20:16.876Z,101411.72
2022-12-28T03:22:45.525Z,101402.84
2022-12-28T03:25:17.351Z,101404.69
2022-12-28T03:27:46.136Z,101399.00
2022-12-28T03:30:18.337Z,101397.00
2022-12-28T03:32:47.615Z,101398.19
2022-12-28T03:35:14.856Z,101392.03
2022-12-28T03:37:52.604Z,101402.63
2022-12-28T03:40:30.597Z,101392.16
2022-12-28T03:43:07.796Z,101392.34
2022-12-28T03:45:50.316Z,101388.72
2022-12-28T03:48:17.754Z,101380.97
2022-12-28T03:50:47.767Z,101377.03
2022-12-28T03:53:19.096Z,101369.75
2022-12-28T03:55:45.756Z,101375.09
2022-12-28T03:58:12.503Z,101377.94
2022-12-28T04:00:39.138Z,101377.88
2022-12-28T04:03:05.832Z,101368.00
2022-12-28T04:05:32.529Z,101364.41
2022-12-28T04:07:59.103Z,101360.47
2022-12-28T04:10:25.696Z,101364.47
2022-12-28T04:12:56.091Z,101353.50
2022-12-28T04:15:22.689Z,101357.38
2022-12-28T04:17:49.311Z,101361.78
2022-12-28T04:20:15.968Z,101354.50
2022-12-28T04:22:42.542Z,101352.44
2022-12-28T04:25:09.402Z,101349.28
2022-12-28T04:27:36.000Z,101338.53
2022-12-28T04:30:02.594Z,101334.88
2022-12-28T04:32:29.201Z,101336.91
2022-12-28T04:34:55.810Z,101338.16
2022-12-28T04:37:22.420Z,101347.03
2022-12-28T04:39:54.920Z,101345.53
2022-12-28T04:42:25.658Z,101345.53
2022-12-28T04:44:52.381Z,101339.50
2022-12-28T04:47:18.991Z,101349.84
2022-12-28T04:49:45.623Z,101346.28
2022-12-28T04:52:12.303Z,101354.22
2022-12-28T04:54:38.923Z,101346.56
2022-12-28T04:57:05.592Z,101346.13
2022-12-28T04:59:32.209Z,101351.41
2022-12-28T05:01:58.924Z,101350.84
2022-12-28T05:04:25.978Z,101356.81
2022-12-28T05:06:52.558Z,101350.22
2022-12-28T05:09:19.183Z,101362.69
2022-12-28T05:11:46.860Z,101355.53
2022-12-28T05:14:13.484Z,101355.75
2022-12-28T05:16:40.727Z,101365.84
2022-12-28T05:19:07.392Z,101363.69
2022-12-28T05:21:34.199Z,101357.94
2022-12-28T05:24:00.970Z,101364.03
2022-12-28T05:26:29.346Z,101358.47
2022-12-28T05:28:56.806Z,101372.59
2022-12-28T05:31:23.739Z,101371.53
2022-12-28T05:33:50.460Z,101365.97
2022-12-28T05:36:22.285Z,101362.97
2022-12-28T05:38:49.191Z,101367.81
2022-12-28T05:41:19.187Z,101361.50
2022-12-28T05:43:46.405Z,101346.44
2022-12-28T05:46:16.271Z,101338.69
2022-12-28T05:48:43.584Z,101338.63
2022-12-28T05:51:15.459Z,101353.31
2022-12-28T05:53:43.052Z,101348.19
2022-12-28T05:56:15.337Z,101342.63
2022-12-28T05:58:43.250Z,101348.47
2022-12-28T06:01:20.152Z,101349.59
2022-12-28T06:03:48.814Z,101352.97
2022-12-28T06:06:17.737Z,101363.00
2022-12-28T06:08:45.772Z,101363.78
2022-12-28T06:11:17.749Z,101362.69
2022-12-28T06:13:45.001Z,101358.16
2022-12-28T06:16:15.484Z,101379.00
2022-12-28T06:18:43.255Z,101376.16
2022-12-28T06:21:23.468Z,101375.16
2022-12-28T06:23:50.542Z,101376.63
2022-12-28T06:26:20.566Z,101377.81
2022-12-28T06:28:48.089Z,101376.16
2022-12-28T06:31:17.728Z,101371.72
2022-12-28T06:33:45.342Z,101375.38
2022-12-28T06:36:20.357Z,101374.41
2022-12-28T06:38:48.949Z,101370.31
2022-12-28T06:41:17.822Z,101378.28
2022-12-28T06:43:45.711Z,101373.19
2022-12-28T06:46:14.059Z,101366.19
2022-12-28T06:48:41.507Z,101373.00
2022-12-28T06:51:12.844Z,101376.78
2022-12-28T06:53:39.898Z,101370.88
2022-12-28T06:56:13.543Z,101373.47
2022-12-28T06:58:40.811Z,101370.50
2022-12-28T07:01:09.335Z,101365.00
2022-12-28T07:03:36.125Z,101377.47
2022-12-28T07:06:04.706Z,101385.63
2022-12-28T07:08:31.838Z,101384.50
2022-12-28T07:11:24.883Z,101388.59
2022-12-28T07:13:51.550Z,101385.13
2022-12-28T07:16:20.625Z,101392.03
2022-12-28T07:18:47.466Z,101382.47
2022-12-28T07:21:16.199Z,101382.41
2022-12-28T07:23:43.230Z,101372.53
2022-12-28T07:26:13.439Z,101383.09
2022-12-28T07:28:41.982Z,101375.69
2022-12-28T07:31:11.680Z,101375.91
2022-12-28T07:33:38.771Z,101373.47
2022-12-28T07:36:07.409Z,101376.13
2022-12-28T07:38:34.985Z,101369.75
2022-12-28T07:41:03.560Z,101370.91
2022-12-28T07:43:33.365Z,101362.13
2022-12-28T07:46:05.256Z,101370.25
2022-12-28T07:48:33.309Z,101362.63
2022-12-28T07:51:26.034Z,101368.69
2022-12-28T07:53:54.200Z,101372.25
2022-12-28T07:56:22.697Z,101378.19
2022-12-28T07:58:54.309Z,101370.00
2022-12-28T08:01:24.607Z,101381.66
2022-12-28T08:03:57.342Z,101386.00
2022-12-28T08:06:25.946Z,101381.47
2022-12-28T08:08:55.444Z,101374.16
2022-12-28T08:11:25.091Z,101383.25
2022-12-28T08:13:54.070Z,101385.88
2022-12-28T08:16:22.115Z,101388.34
2022-12-28T08:18:49.566Z,101388.03
2022-12-28T08:21:18.320Z,101389.59
2022-12-28T08:23:44.967Z,101382.97
2022-12-28T08:26:23.904Z,101379.81
2022-12-28T08:28:54.099Z,101377.78
2022-12-28T08:31:26.834Z,101377.94
2022-12-28T08:33:55.050Z,101372.13
2022-12-28T08:36:22.493Z,101373.78
2022-12-28T08:38:50.056Z,101371.56
2022-12-28T08:41:20.381Z,101371.53
2022-12-28T08:43:47.981Z,101379.84
2022-12-28T08:46:17.767Z,101376.38
2022-12-28T08:48:45.384Z,101371.56
2022-12-28T08:51:17.404Z,101374.97
2022-12-28T08:53:44.962Z,101371.06
2022-12-28T08:56:21.740Z,101375.91
2022-12-28T08:58:49.442Z,101378.78
2022-12-28T09:01:19.497Z,101369.50
2022-12-28T09:03:48.503Z,101359.50
2022-12-28T09:06:21.775Z,101360.88
2022-12-28T09:09:04.788Z,101356.03
2022-12-28T09:11:33.044Z,101361.78
2022-12-28T09:13:59.714Z,101370.13
2022-12-28T09:16:27.898Z,101363.72
2022-12-28T09:19:02.632Z,101365.41
2022-12-28T09:21:33.224Z,101375.69
2022-12-28T09:23:59.913Z,101362.19
2022-12-28T09:26:29.699Z,101349.44
2022-12-28T09:28:59.079Z,101350.97
2022-12-28T09:31:28.505Z,101344.44
2022-12-28T09:34:34.425Z,101347.63
2022-12-28T09:36:44.297Z,101331.66
2022-12-28T09:39:16.265Z,101336.81
2022-12-28T09:41:57.781Z,101331.47
2022-12-28T09:44:33.668Z,101350.41
2022-12-28T09:47:04.899Z,101335.09
2022-12-28T09:49:58.999Z,101324.56
2022-12-28T09:52:49.807Z,101321.78
2022-12-28T09:55:18.794Z,101314.44
2022-12-28T09:57:50.888Z,101320.97
2022-12-28T10:00:21.112Z,101305.81
2022-12-28T10:02:53.072Z,101297.47
2022-12-28T10:05:21.373Z,101291.44
2022-12-28T10:07:48.324Z,101287.84
2022-12-28T10:10:20.237Z,101287.72
2022-12-28T10:12:47.628Z,101276.63
2022-12-28T10:15:15.956Z,101270.50
2022-12-28T10:17:43.544Z,101274.09
2022-12-28T10:20:19.606Z,101273.75
2022-12-28T10:22:55.755Z,101268.47
2022-12-28T10:25:25.057Z,101277.16
2022-12-28T10:27:52.859Z,101266.59
2022-12-28T10:30:24.869Z,101269.53
2022-12-28T10:33:02.068Z,101263.75
2022-12-28T10:35:34.082Z,101263.69
2022-12-28T10:38:07.309Z,101263.56
2022-12-28T10:40:38.124Z,101261.06
2022-12-28T10:43:10.489Z,101256.09
2022-12-28T10:45:48.459Z,101262.41
2022-12-28T10:48:19.431Z,101267.72
2022-12-28T10:50:59.212Z,101262.31
2022-12-28T10:53:32.656Z,101250.22
2022-12-28T10:56:14.525Z,101259.53
2022-12-28T10:58:45.799Z,101259.00
2022-12-28T11:01:12.462Z,101263.28
2022-12-28T11:03:46.405Z,101261.25
2022-12-28T11:06:15.235Z,101265.03
2022-12-28T11:08:43.499Z,101257.28
2022-12-28T11:11:19.699Z,101258.06
2022-12-28T11:13:51.682Z,101253.63
2022-12-28T11:16:18.340Z,101255.00
2022-12-28T11:18:45.131Z,101259.59
2022-12-28T11:21:21.823Z,101254.94
2022-12-28T11:23:50.831Z,101262.69
2022-12-28T11:26:19.046Z,101253.94
2022-12-28T11:28:49.241Z,101249.91
2022-12-28T11:31:32.084Z,101240.78
2022-12-28T11:34:01.464Z,101248.25
2022-12-28T11:36:28.408Z,101235.63
2022-12-28T11:38:56.877Z,101232.91
2022-12-28T11:41:24.779Z,101226.91
2022-12-28T11:43:59.352Z,101219.47
2022-12-28T11:46:25.889Z,101217.88
2022-12-28T11:49:01.105Z,101211.59
2022-12-28T11:51:35.966Z,101217.13
2022-12-28T11:54:48.479Z,101204.91
2022-12-28T11:57:36.072Z,101196.06
2022-12-28T12:00:37.857Z,101202.66
2022-12-28T12:03:04.670Z,101192.69
2022-12-28T12:05:37.280Z,101191.41
2022-12-28T12:08:09.979Z,101188.13
2022-12-28T12:10:38.003Z,101183.47
2022-12-28T12:13:24.761Z,101182.69
2022-12-28T12:16:03.944Z,101174.59
2022-12-28T12:18:40.166Z,101177.47
2022-12-28T12:21:13.532Z,101166.59
2022-12-28T12:24:01.938Z,101162.34
2022-12-28T12:26:35.632Z,101153.59
2022-12-28T12:29:11.481Z,101160.50
2022-12-28T12:31:47.028Z,101158.72
2022-12-28T12:34:29.441Z,101148.38
2022-12-28T12:37:18.317Z,101137.09
2022-12-28T12:39:58.532Z,101128.34
2022-12-28T12:42:35.999Z,101129.91
2022-12-28T12:45:27.478Z,101130.03
2022-12-28T12:48:03.322Z,101134.63
2022-12-28T12:50:41.802Z,101131.16
2022-12-28T12:53:43.140Z,101121.47
2022-12-28T12:56:38.820Z,101112.25
2022-12-28T12:59:29.539Z,101110.66
2022-12-28T13:01:58.981Z,101109.09
2022-12-28T13:04:29.367Z,101109.84
2022-12-28T13:07:00.325Z,101111.34
2022-12-28T13:09:30.080Z,101106.97
2022-12-28T13:11:58.285Z,101104.94
2022-12-28T13:14:25.709Z,101103.44
2022-12-28T13:16:55.542Z,101105.34
2022-12-28T13:19:27.895Z,101094.38
2022-12-28T13:21:55.602Z,101093.47
2022-12-28T13:24:28.136Z,101085.44
2022-12-28T13:26:56.509Z,101087.00
2022-12-28T13:29:27.243Z,101089.72
2022-12-28T13:31:54.389Z,101081.88
2022-12-28T13:34:27.166Z,101087.22
2022-12-28T13:36:55.862Z,101088.69
2022-12-28T13:39:29.195Z,101094.13
2022-12-28T13:42:00.640Z,101091.38
2022-12-28T13:44:46.111Z,101085.78
2022-12-28T13:47:31.739Z,101089.38
2022-12-28T13:50:07.566Z,101091.59
2022-12-28T13:52:42.556Z,101078.59
2022-12-28T13:55:16.989Z,101063.22
2022-12-28T13:57:51.461Z,101050.09
2022-12-28T14:00:23.209Z,101049.94
2022-12-28T14:02:53.125Z,101048.19
2022-12-28T14:05:24.355Z,101047.53
2022-12-28T14:07:54.397Z,101043.34
2022-12-28T14:10:22.475Z,101051.91
2022-12-28T14:12:50.606Z,101051.00
2022-12-28T14:15:18.671Z,101048.69
2022-12-28T14:17:50.956Z,101041.47
2022-12-28T14:20:19.664Z,101040.31
2022-12-28T14:22:46.496Z,101041.31
2022-12-28T14:25:15.741Z,101047.56
2022-12-28T14:28:03.203Z,101045.22
2022-12-28T14:30:33.848Z,101046.69
2022-12-28T14:36:01.644Z,101039.09
2022-12-28T14:38:39.538Z,101040.00
2022-12-28T14:41:07.565Z,101033.75
2022-12-28T14:43:36.097Z,101038.75
2022-12-28T14:46:36.515Z,101038.53
2022-12-28T14:49:28.019Z,101028.34
2022-12-28T14:52:08.957Z,101022.00
2022-12-28T14:54:50.356Z,101019.31
2022-12-28T14:57:32.098Z,101015.69
2022-12-28T15:00:06.103Z,101018.13
2022-12-28T15:02:35.640Z,101024.16
2022-12-28T15:05:03.152Z,101019.16
2022-12-28T15:07:31.576Z,101028.66
2022-12-28T15:09:58.238Z,101024.16
2022-12-28T15:12:24.899Z,101037.53
2022-12-28T15:14:51.752Z,101040.91
2022-12-28T15:17:18.952Z,101053.47
2022-12-28T15:19:45.838Z,101042.09
2022-12-28T15:22:12.800Z,101043.34
2022-12-28T15:24:39.466Z,101049.63
2022-12-28T15:27:06.096Z,101047.31
2022-12-28T15:29:56.192Z,101046.22
2022-12-28T15:32:19.352Z,101045.34
2022-12-28T15:34:45.960Z,101046.53
2022-12-28T15:37:12.535Z,101051.72
2022-12-28T15:39:39.137Z,101054.25
2022-12-28T15:42:05.727Z,101045.50
2022-12-28T15:44:32.330Z,101039.50
2022-12-28T15:46:59.268Z,101041.94
2022-12-28T15:49:25.926Z,101042.94
2022-12-28T15:51:52.716Z,101041.91
2022-12-28T15:54:19.356Z,101041.94
2022-12-28T15:56:52.782Z,101045.16
2022-12-28T15:59:20.032Z,101030.78
2022-12-28T16:01:46.847Z,101033.44
2022-12-28T16:04:13.666Z,101028.38
2022-12-28T16:06:44.755Z,101033.78
2022-12-28T16:09:12.935Z,101035.69
2022-12-28T16:11:40.421Z,101033.38
2022-12-28T16:14:11.743Z,101033.91
2022-12-28T16:16:40.075Z,101032.88
2022-12-28T16:19:07.434Z,101033.78
2022-12-28T16:21:34.335Z,101029.63
2022-12-28T16:24:01.114Z,101025.13
2022-12-28T16:26:28.332Z,101031.28
2022-12-28T16:28:55.144Z,101029.81
2022-12-28T16:31:33.960Z,101028.59
2022-12-28T16:34:04.372Z,101031.88
2022-12-28T16:36:31.595Z,101029.59
2022-12-28T16:38:58.741Z,101031.09
2022-12-28T16:41:28.734Z,101026.78
2022-12-28T16:44:07.678Z,101024.44
2022-12-28T16:46:34.306Z,101028.94
2022-12-28T16:49:02.082Z,101023.63
2022-12-28T16:51:32.114Z,101033.94
2022-12-28T16:53:58.762Z,101036.72
2022-12-28T16:56:25.460Z,101033.69
2022-12-28T16:58:56.161Z,101033.34
2022-12-28T17:01:22.871Z,101033.91
2022-12-28T17:03:49.604Z,101032.81
2022-12-28T17:06:16.306Z,101024.78
2022-12-28T17:08:43.090Z,101030.06
2022-12-28T17:11:11.379Z,101023.19
2022-12-28T17:13:38.334Z,101024.78
2022-12-28T17:16:06.239Z,101024.19
2022-12-28T17:18:33.255Z,101021.38
2022-12-28T17:21:04.970Z,101016.91
2022-12-28T17:23:33.825Z,101016.38
2022-12-28T17:26:00.476Z,101015.19
2022-12-28T17:28:27.158Z,101018.19
2022-12-28T17:31:15.481Z,101013.91
2022-12-28T17:33:50.561Z,101011.78
2022-12-28T17:36:17.685Z,101013.63
2022-12-28T17:38:44.339Z,101011.13
2022-12-28T17:41:16.148Z,101012.88
2022-12-28T17:43:47.317Z,101012.44
2022-12-28T17:46:14.059Z,100994.56
2022-12-28T17:48:40.686Z,100999.72
2022-12-28T17:51:11.182Z,100994.16
2022-12-28T17:53:39.338Z,100998.19
2022-12-28T17:56:09.385Z,100994.44
2022-12-28T17:58:36.020Z,100997.38
2022-12-28T18:01:03.461Z,100995.06
2022-12-28T18:03:33.863Z,100990.88
2022-12-28T18:06:01.277Z,100992.06
2022-12-28T18:08:28.405Z,100985.88
2022-12-28T18:10:55.082Z,100977.13
2022-12-28T18:13:22.447Z,100978.72
2022-12-28T18:15:49.434Z,100974.44
2022-12-28T18:18:17.242Z,100963.13
2022-12-28T18:20:44.522Z,100961.28
2022-12-28T18:23:11.931Z,100961.94
2022-12-28T18:25:38.709Z,100964.06
2022-12-28T18:28:05.439Z,100957.97
2022-12-28T18:30:32.080Z,100963.25
2022-12-28T18:32:58.762Z,100964.94
2022-12-28T18:35:25.343Z,100955.69
2022-12-28T18:37:51.966Z,100950.81
2022-12-28T18:40:18.583Z,100948.31
2022-12-28T18:42:45.185Z,100958.28
2022-12-28T18:45:11.777Z,100955.81
2022-12-28T18:47:38.408Z,100954.09
2022-12-28T18:50:05.429Z,100954.75
2022-12-28T18:52:32.013Z,100959.28
2022-12-28T18:54:58.604Z,100952.66
2022-12-28T18:57:25.191Z,100955.75
2022-12-28T18:59:51.837Z,100958.56
2022-12-28T19:02:19.901Z,100955.75
2022-12-28T19:04:46.804Z,100958.25
2022-12-28T19:07:13.490Z,100966.69
2022-12-28T19:09:40.075Z,100965.03
2022-12-28T19:12:06.848Z,100964.84
2022-12-28T19:14:33.447Z,100964.38
2022-12-28T19:17:00.030Z,100960.84
2022-12-28T19:19:26.621Z,100965.97
2022-12-28T19:21:58.452Z,100967.13
2022-12-28T19:24:25.385Z,100968.53
2022-12-28T19:26:51.976Z,100961.84
2022-12-28T19:29:18.540Z,100966.19
2022-12-28T19:31:45.249Z,100976.94
2022-12-28T19:34:11.919Z,100972.09
2022-12-28T19:36:38.561Z,100976.34
2022-12-28T19:39:05.205Z,100981.97
2022-12-28T19:41:31.906Z,100974.81
2022-12-28T19:43:58.492Z,100968.81
2022-12-28T19:46:26.228Z,100959.16
2022-12-28T19:48:54.040Z,100958.25
2022-12-28T19:51:22.563Z,100957.34
2022-12-28T19:53:53.294Z,100956.31
2022-12-28T19:56:20.903Z,100953.50
2022-12-28T19:58:47.650Z,100952.69
2022-12-28T20:01:19.551Z,100955.84
2022-12-28T20:03:47.315Z,100959.78
2022-12-28T20:06:17.823Z,100950.16
2022-12-28T20:08:49.391Z,100948.03
2022-12-28T20:11:17.155Z,100944.28
2022-12-28T20:13:52.689Z,100948.84
2022-12-28T20:16:19.817Z,100947.09
2022-12-28T20:18:47.293Z,100946.06
2022-12-28T20:21:22.025Z,100938.94
2022-12-28T20:23:50.418Z,100939.97
2022-12-28T20:26:19.082Z,100937.31
2022-12-28T20:28:46.045Z,100938.56
2022-12-28T20:31:14.397Z,100928.34
2022-12-28T20:33:42.015Z,100934.81
2022-12-28T20:36:12.874Z,100931.06
2022-12-28T20:38:39.555Z,100933.63
2022-12-28T20:41:07.354Z,100927.63
2022-12-28T20:43:34.483Z,100927.66
2022-12-28T20:46:02.111Z,100914.03
2022-12-28T20:48:29.359Z,100911.63
2022-12-28T20:51:00.208Z,100914.22
2022-12-28T20:53:27.949Z,100922.41
2022-12-28T20:56:06.046Z,100914.31
2022-12-28T20:58:32.630Z,100919.75
2022-12-28T21:01:57.198Z,100912.59
2022-12-28T21:04:24.374Z,100912.72
2022-12-28T21:06:54.608Z,100914.84
2022-12-28T21:09:21.909Z,100913.00
2022-12-28T21:11:48.535Z,100919.50
2022-12-28T21:14:15.129Z,100913.56
2022-12-28T21:16:41.764Z,100917.50
2022-12-28T21:19:09.831Z,100921.84
2022-12-28T21:21:36.481Z,100917.44
2022-12-28T21:24:03.901Z,100911.94
2022-12-28T21:26:30.645Z,100916.66
2022-12-28T21:28:57.236Z,100907.63
2022-12-28T21:31:24.270Z,100914.28
2022-12-28T21:33:55.271Z,100917.00
2022-12-28T21:36:22.278Z,100910.06
2022-12-28T21:38:49.366Z,100907.41
2022-12-28T21:41:19.201Z,100900.66
2022-12-28T21:43:45.771Z,100907.75
2022-12-28T21:46:14.477Z,100909.16
2022-12-28T21:48:41.959Z,100904.94
2022-12-28T21:51:08.494Z,100909.94
2022-12-28T21:53:35.184Z,100899.75
2022-12-28T21:56:01.778Z,100898.59
2022-12-28T21:58:28.379Z,100902.50
2022-12-28T22:00:59.193Z,100894.13
2022-12-28T22:03:26.042Z,100894.81
2022-12-28T22:05:52.707Z,100893.31
2022-12-28T22:08:19.283Z,100879.19
2022-12-28T22:10:45.883Z,100876.66
2022-12-28T22:13:12.568Z,100875.53
2022-12-28T22:15:39.155Z,100878.88
2022-12-28T22:21:04.994Z,100875.53
2022-12-28T22:23:34.719Z,100867.81
2022-12-28T22:26:02.209Z,100872.84
2022-12-28T22:28:28.832Z,100866.09
2022-12-28T22:30:55.407Z,100873.56
2022-12-28T22:33:22.005Z,100862.81
2022-12-28T22:35:48.590Z,100861.88
2022-12-28T22:38:15.185Z,100865.34
2022-12-28T22:40:41.846Z,100861.25
2022-12-28T22:43:08.442Z,100861.28
2022-12-28T22:45:35.055Z,100849.72
2022-12-28T22:48:01.742Z,100855.00
2022-12-28T22:50:28.394Z,100838.38
2022-12-28T22:52:56.117Z,100844.72
2022-12-28T22:55:22.744Z,100844.53
2022-12-28T22:57:49.470Z,100838.38
2022-12-28T23:00:18.217Z,100841.75
2022-12-28T23:02:45.012Z,100838.31
2022-12-28T23:05:11.775Z,100834.72
2022-12-28T23:07:38.456Z,100827.09
2022-12-28T23:10:06.891Z,100819.16
2022-12-28T23:12:33.498Z,100826.81
2022-12-28T23:15:00.097Z,100821.84
2022-12-28T23:17:26.857Z,100830.00
2022-12-28T23:19:53.461Z,100823.03
2022-12-28T23:22:25.472Z,100824.25
2022-12-28T23:24:52.060Z,100818.66
2022-12-28T23:27:18.669Z,100806.41
2022-12-28T23:29:46.161Z,100803.66
2022-12-28T23:32:13.124Z,100793.88
2022-12-28T23:34:39.736Z,100794.59
2022-12-28T23:37:06.422Z,100793.06
2022-12-28T23:39:33.107Z,100792.44
2022-12-28T23:41:59.715Z,100785.28
2022-12-28T23:44:26.783Z,100776.91
2022-12-28T23:46:59.012Z,100777.97
2022-12-28T23:49:26.683Z,100774.47
2022-12-28T23:51:53.368Z,100776.13
2022-12-28T23:54:20.745Z,100778.09
2022-12-28T23:56:48.167Z,100774.56
2022-12-28T23:59:15.376Z,100777.19
